sensor_id;sensor_type;location;lat;lon;timestamp;P1;durP1;ratioP1;P2;durP2;ratioP2
23163;SDS011;31429;42.674;23.350;2023-04-23T00:00:04;9.15;;;6.80;;
23163;SDS011;31429;42.674;23.350;2023-04-23T00:01:07;11.20;;;7.45;;
23163;SDS011;31429;42.674;23.350;2023-04-23T00:02:08;8.18;;;7.38;;
23163;SDS011;31429;42.674;23.350;2023-04-23T00:03:11;9.43;;;7.53;;
23163;SDS011;31429;42.674;23.350;2023-04-23T00:04:14;8.60;;;7.70;;
23163;SDS011;31429;42.674;23.350;2023-04-23T00:05:18;7.80;;;7.05;;
23163;SDS011;31429;42.674;23.350;2023-04-23T00:06:19;7.72;;;6.97;;
23163;SDS011;31429;42.674;23.350;2023-04-23T00:07:23;9.18;;;6.93;;
23163;SDS011;31429;42.674;23.350;2023-04-23T00:08:24;7.72;;;6.43;;
23163;SDS011;31429;42.674;23.350;2023-04-23T00:09:26;9.25;;;6.82;;
23163;SDS011;31429;42.674;23.350;2023-04-23T00:10:30;8.65;;;6.90;;
23163;SDS011;31429;42.674;23.350;2023-04-23T00:11:31;8.23;;;6.50;;
23163;SDS011;31429;42.674;23.350;2023-04-23T00:12:32;9.77;;;7.60;;
23163;SDS011;31429;42.674;23.350;2023-04-23T00:13:34;8.48;;;7.00;;
23163;SDS011;31429;42.674;23.350;2023-04-23T00:14:35;12.32;;;6.68;;
23163;SDS011;31429;42.674;23.350;2023-04-23T00:15:36;7.85;;;7.13;;
23163;SDS011;31429;42.674;23.350;2023-04-23T00:16:37;9.40;;;6.95;;
23163;SDS011;31429;42.674;23.350;2023-04-23T00:17:39;7.72;;;7.03;;
23163;SDS011;31429;42.674;23.350;2023-04-23T00:18:40;7.23;;;6.63;;
23163;SDS011;31429;42.674;23.350;2023-04-23T00:19:41;11.97;;;7.70;;
23163;SDS011;31429;42.674;23.350;2023-04-23T00:20:41;10.67;;;7.23;;
23163;SDS011;31429;42.674;23.350;2023-04-23T00:21:42;8.23;;;7.43;;
23163;SDS011;31429;42.674;23.350;2023-04-23T00:22:45;9.65;;;6.85;;
23163;SDS011;31429;42.674;23.350;2023-04-23T00:23:45;9.52;;;7.45;;
23163;SDS011;31429;42.674;23.350;2023-04-23T00:24:46;7.77;;;7.07;;
23163;SDS011;31429;42.674;23.350;2023-04-23T00:25:47;8.57;;;7.67;;
23163;SDS011;31429;42.674;23.350;2023-04-23T00:26:48;8.75;;;7.60;;
23163;SDS011;31429;42.674;23.350;2023-04-23T00:27:51;12.38;;;8.00;;
23163;SDS011;31429;42.674;23.350;2023-04-23T00:28:52;9.87;;;8.03;;
23163;SDS011;31429;42.674;23.350;2023-04-23T00:29:53;10.07;;;8.10;;
23163;SDS011;31429;42.674;23.350;2023-04-23T00:30:53;9.37;;;7.87;;
23163;SDS011;31429;42.674;23.350;2023-04-23T00:31:54;8.53;;;7.80;;
23163;SDS011;31429;42.674;23.350;2023-04-23T00:32:55;10.93;;;8.20;;
23163;SDS011;31429;42.674;23.350;2023-04-23T00:33:56;9.33;;;8.23;;
23163;SDS011;31429;42.674;23.350;2023-04-23T00:34:57;8.97;;;8.07;;
23163;SDS011;31429;42.674;23.350;2023-04-23T00:35:57;14.33;;;7.93;;
23163;SDS011;31429;42.674;23.350;2023-04-23T00:36:58;11.63;;;8.40;;
23163;SDS011;31429;42.674;23.350;2023-04-23T00:38:00;9.17;;;8.27;;
23163;SDS011;31429;42.674;23.350;2023-04-23T00:39:01;11.23;;;8.35;;
23163;SDS011;31429;42.674;23.350;2023-04-23T00:40:02;10.23;;;7.83;;
23163;SDS011;31429;42.674;23.350;2023-04-23T00:41:03;12.18;;;8.93;;
23163;SDS011;31429;42.674;23.350;2023-04-23T00:42:05;9.93;;;8.00;;
23163;SDS011;31429;42.674;23.350;2023-04-23T00:43:11;12.52;;;8.45;;
23163;SDS011;31429;42.674;23.350;2023-04-23T00:44:12;8.88;;;8.07;;
23163;SDS011;31429;42.674;23.350;2023-04-23T00:45:13;12.30;;;9.00;;
23163;SDS011;31429;42.674;23.350;2023-04-23T00:46:14;11.43;;;8.53;;
23163;SDS011;31429;42.674;23.350;2023-04-23T00:47:15;10.60;;;8.38;;
23163;SDS011;31429;42.674;23.350;2023-04-23T00:48:17;10.35;;;8.57;;
23163;SDS011;31429;42.674;23.350;2023-04-23T00:49:18;10.63;;;9.53;;
23163;SDS011;31429;42.674;23.350;2023-04-23T00:50:21;11.35;;;8.70;;
23163;SDS011;31429;42.674;23.350;2023-04-23T00:51:21;11.30;;;9.00;;
23163;SDS011;31429;42.674;23.350;2023-04-23T00:52:23;10.18;;;9.10;;
23163;SDS011;31429;42.674;23.350;2023-04-23T00:53:25;12.27;;;9.23;;
23163;SDS011;31429;42.674;23.350;2023-04-23T00:54:26;10.63;;;9.40;;
23163;SDS011;31429;42.674;23.350;2023-04-23T00:55:27;9.83;;;8.80;;
23163;SDS011;31429;42.674;23.350;2023-04-23T00:56:28;10.95;;;8.90;;
23163;SDS011;31429;42.674;23.350;2023-04-23T00:57:29;11.03;;;9.53;;
23163;SDS011;31429;42.674;23.350;2023-04-23T00:58:30;11.90;;;10.63;;
23163;SDS011;31429;42.674;23.350;2023-04-23T00:59:31;13.50;;;10.25;;
23163;SDS011;31429;42.674;23.350;2023-04-23T01:00:32;14.17;;;10.70;;
23163;SDS011;31429;42.674;23.350;2023-04-23T01:01:36;14.55;;;12.48;;
23163;SDS011;31429;42.674;23.350;2023-04-23T01:02:36;21.83;;;18.63;;
23163;SDS011;31429;42.674;23.350;2023-04-23T01:03:38;78.38;;;56.40;;
23163;SDS011;31429;42.674;23.350;2023-04-23T01:04:42;78.53;;;57.00;;
23163;SDS011;31429;42.674;23.350;2023-04-23T01:05:43;98.22;;;69.28;;
23163;SDS011;31429;42.674;23.350;2023-04-23T01:06:44;48.40;;;37.10;;
23163;SDS011;31429;42.674;23.350;2023-04-23T01:07:46;14.48;;;11.23;;
23163;SDS011;31429;42.674;23.350;2023-04-23T01:08:49;33.45;;;24.95;;
23163;SDS011;31429;42.674;23.350;2023-04-23T01:09:50;16.50;;;13.13;;
23163;SDS011;31429;42.674;23.350;2023-04-23T01:10:51;15.47;;;12.90;;
23163;SDS011;31429;42.674;23.350;2023-04-23T01:11:53;23.95;;;16.02;;
23163;SDS011;31429;42.674;23.350;2023-04-23T01:12:54;20.42;;;14.73;;
23163;SDS011;31429;42.674;23.350;2023-04-23T01:13:55;18.70;;;14.63;;
23163;SDS011;31429;42.674;23.350;2023-04-23T01:14:55;19.53;;;16.83;;
23163;SDS011;31429;42.674;23.350;2023-04-23T01:15:56;12.17;;;10.47;;
23163;SDS011;31429;42.674;23.350;2023-04-23T01:16:57;16.57;;;11.87;;
23163;SDS011;31429;42.674;23.350;2023-04-23T01:17:58;30.10;;;19.90;;
23163;SDS011;31429;42.674;23.350;2023-04-23T01:18:59;23.93;;;17.20;;
23163;SDS011;31429;42.674;23.350;2023-04-23T01:19:59;13.60;;;10.77;;
23163;SDS011;31429;42.674;23.350;2023-04-23T01:21:00;23.33;;;16.90;;
23163;SDS011;31429;42.674;23.350;2023-04-23T01:22:02;11.80;;;10.60;;
23163;SDS011;31429;42.674;23.350;2023-04-23T01:23:07;15.90;;;12.45;;
23163;SDS011;31429;42.674;23.350;2023-04-23T01:24:09;17.07;;;13.07;;
23163;SDS011;31429;42.674;23.350;2023-04-23T01:25:10;17.65;;;12.77;;
23163;SDS011;31429;42.674;23.350;2023-04-23T01:26:11;19.53;;;13.70;;
23163;SDS011;31429;42.674;23.350;2023-04-23T01:27:13;26.23;;;20.60;;
23163;SDS011;31429;42.674;23.350;2023-04-23T01:28:15;13.20;;;11.82;;
23163;SDS011;31429;42.674;23.350;2023-04-23T01:29:16;19.40;;;16.13;;
23163;SDS011;31429;42.674;23.350;2023-04-23T01:30:17;17.60;;;13.97;;
23163;SDS011;31429;42.674;23.350;2023-04-23T01:31:18;18.17;;;15.52;;
23163;SDS011;31429;42.674;23.350;2023-04-23T01:32:19;18.13;;;14.60;;
23163;SDS011;31429;42.674;23.350;2023-04-23T01:33:20;13.52;;;12.10;;
23163;SDS011;31429;42.674;23.350;2023-04-23T01:34:21;13.82;;;10.85;;
23163;SDS011;31429;42.674;23.350;2023-04-23T01:35:22;21.67;;;18.00;;
23163;SDS011;31429;42.674;23.350;2023-04-23T01:36:23;11.50;;;10.33;;
23163;SDS011;31429;42.674;23.350;2023-04-23T01:37:26;13.27;;;11.73;;
23163;SDS011;31429;42.674;23.350;2023-04-23T01:38:29;13.63;;;10.88;;
23163;SDS011;31429;42.674;23.350;2023-04-23T01:39:31;12.23;;;11.02;;
23163;SDS011;31429;42.674;23.350;2023-04-23T01:40:32;17.97;;;11.30;;
23163;SDS011;31429;42.674;23.350;2023-04-23T01:41:33;40.37;;;29.23;;
23163;SDS011;31429;42.674;23.350;2023-04-23T01:42:35;57.78;;;42.92;;
23163;SDS011;31429;42.674;23.350;2023-04-23T01:43:35;66.93;;;46.50;;
23163;SDS011;31429;42.674;23.350;2023-04-23T01:44:37;65.18;;;47.80;;
23163;SDS011;31429;42.674;23.350;2023-04-23T01:45:37;52.97;;;38.50;;
23163;SDS011;31429;42.674;23.350;2023-04-23T01:46:38;36.13;;;24.57;;
23163;SDS011;31429;42.674;23.350;2023-04-23T01:47:39;29.20;;;22.60;;
23163;SDS011;31429;42.674;23.350;2023-04-23T01:48:41;25.70;;;20.17;;
23163;SDS011;31429;42.674;23.350;2023-04-23T01:49:41;19.97;;;17.30;;
23163;SDS011;31429;42.674;23.350;2023-04-23T01:50:42;20.20;;;15.70;;
23163;SDS011;31429;42.674;23.350;2023-04-23T01:51:43;13.63;;;11.67;;
23163;SDS011;31429;42.674;23.350;2023-04-23T01:52:45;11.30;;;10.20;;
23163;SDS011;31429;42.674;23.350;2023-04-23T01:53:46;11.60;;;10.45;;
23163;SDS011;31429;42.674;23.350;2023-04-23T01:54:46;15.73;;;11.27;;
23163;SDS011;31429;42.674;23.350;2023-04-23T01:55:47;12.60;;;11.07;;
23163;SDS011;31429;42.674;23.350;2023-04-23T01:56:49;13.77;;;10.82;;
23163;SDS011;31429;42.674;23.350;2023-04-23T01:57:53;12.30;;;11.00;;
23163;SDS011;31429;42.674;23.350;2023-04-23T01:58:55;12.27;;;10.93;;
23163;SDS011;31429;42.674;23.350;2023-04-23T01:59:56;11.57;;;9.97;;
23163;SDS011;31429;42.674;23.350;2023-04-23T02:01:03;15.13;;;9.95;;
23163;SDS011;31429;42.674;23.350;2023-04-23T02:02:03;11.63;;;10.37;;
23163;SDS011;31429;42.674;23.350;2023-04-23T02:03:04;12.57;;;9.57;;
23163;SDS011;31429;42.674;23.350;2023-04-23T02:04:05;11.90;;;10.60;;
23163;SDS011;31429;42.674;23.350;2023-04-23T02:05:07;13.37;;;10.43;;
23163;SDS011;31429;42.674;23.350;2023-04-23T02:06:11;14.20;;;10.73;;
23163;SDS011;31429;42.674;23.350;2023-04-23T02:07:12;12.35;;;10.38;;
23163;SDS011;31429;42.674;23.350;2023-04-23T02:08:14;12.10;;;10.87;;
23163;SDS011;31429;42.674;23.350;2023-04-23T02:09:15;11.95;;;10.70;;
23163;SDS011;31429;42.674;23.350;2023-04-23T02:10:16;14.60;;;10.67;;
23163;SDS011;31429;42.674;23.350;2023-04-23T02:11:17;11.60;;;10.40;;
23163;SDS011;31429;42.674;23.350;2023-04-23T02:12:18;17.33;;;10.33;;
23163;SDS011;31429;42.674;23.350;2023-04-23T02:13:19;12.57;;;11.33;;
23163;SDS011;31429;42.674;23.350;2023-04-23T02:14:19;15.10;;;11.77;;
23163;SDS011;31429;42.674;23.350;2023-04-23T02:15:20;12.63;;;11.00;;
23163;SDS011;31429;42.674;23.350;2023-04-23T02:16:21;12.03;;;10.77;;
23163;SDS011;31429;42.674;23.350;2023-04-23T02:17:23;12.52;;;11.20;;
23163;SDS011;31429;42.674;23.350;2023-04-23T02:18:24;13.53;;;10.53;;
23163;SDS011;31429;42.674;23.350;2023-04-23T02:19:25;15.40;;;11.27;;
23163;SDS011;31429;42.674;23.350;2023-04-23T02:20:26;14.55;;;11.98;;
23163;SDS011;31429;42.674;23.350;2023-04-23T02:21:27;14.20;;;11.80;;
23163;SDS011;31429;42.674;23.350;2023-04-23T02:22:28;15.30;;;12.00;;
23163;SDS011;31429;42.674;23.350;2023-04-23T02:23:32;13.13;;;11.82;;
23163;SDS011;31429;42.674;23.350;2023-04-23T02:24:32;16.02;;;11.48;;
23163;SDS011;31429;42.674;23.350;2023-04-23T02:25:33;15.77;;;13.07;;
23163;SDS011;31429;42.674;23.350;2023-04-23T02:26:37;13.15;;;11.52;;
23163;SDS011;31429;42.674;23.350;2023-04-23T02:27:38;13.47;;;12.13;;
23163;SDS011;31429;42.674;23.350;2023-04-23T02:28:38;14.40;;;12.30;;
23163;SDS011;31429;42.674;23.350;2023-04-23T02:29:39;29.20;;;26.63;;
23163;SDS011;31429;42.674;23.350;2023-04-23T02:30:40;19.13;;;16.83;;
23163;SDS011;31429;42.674;23.350;2023-04-23T02:31:45;16.75;;;13.82;;
23163;SDS011;31429;42.674;23.350;2023-04-23T02:32:45;13.87;;;12.33;;
23163;SDS011;31429;42.674;23.350;2023-04-23T02:33:46;15.53;;;13.00;;
23163;SDS011;31429;42.674;23.350;2023-04-23T02:34:47;14.88;;;13.35;;
23163;SDS011;31429;42.674;23.350;2023-04-23T02:35:48;17.37;;;13.20;;
23163;SDS011;31429;42.674;23.350;2023-04-23T02:36:48;18.60;;;14.33;;
23163;SDS011;31429;42.674;23.350;2023-04-23T02:37:50;14.68;;;13.15;;
23163;SDS011;31429;42.674;23.350;2023-04-23T02:38:52;15.33;;;13.80;;
23163;SDS011;31429;42.674;23.350;2023-04-23T02:39:53;15.80;;;13.43;;
23163;SDS011;31429;42.674;23.350;2023-04-23T02:40:53;16.97;;;13.83;;
23163;SDS011;31429;42.674;23.350;2023-04-23T02:41:54;14.97;;;12.20;;
23163;SDS011;31429;42.674;23.350;2023-04-23T02:42:55;14.60;;;13.07;;
23163;SDS011;31429;42.674;23.350;2023-04-23T02:43:56;13.67;;;12.17;;
23163;SDS011;31429;42.674;23.350;2023-04-23T02:44:57;14.68;;;12.85;;
23163;SDS011;31429;42.674;23.350;2023-04-23T02:45:58;17.83;;;13.17;;
23163;SDS011;31429;42.674;23.350;2023-04-23T02:46:59;16.70;;;12.60;;
23163;SDS011;31429;42.674;23.350;2023-04-23T02:47:59;16.87;;;13.30;;
23163;SDS011;31429;42.674;23.350;2023-04-23T02:49:00;14.83;;;13.27;;
23163;SDS011;31429;42.674;23.350;2023-04-23T02:50:01;15.60;;;13.00;;
23163;SDS011;31429;42.674;23.350;2023-04-23T02:51:05;13.48;;;11.93;;
23163;SDS011;31429;42.674;23.350;2023-04-23T02:52:06;14.80;;;12.63;;
23163;SDS011;31429;42.674;23.350;2023-04-23T02:53:07;14.73;;;12.80;;
23163;SDS011;31429;42.674;23.350;2023-04-23T02:54:09;15.33;;;12.57;;
23163;SDS011;31429;42.674;23.350;2023-04-23T02:55:10;15.40;;;12.90;;
23163;SDS011;31429;42.674;23.350;2023-04-23T02:56:11;15.20;;;13.03;;
23163;SDS011;31429;42.674;23.350;2023-04-23T02:57:12;17.73;;;13.40;;
23163;SDS011;31429;42.674;23.350;2023-04-23T02:58:14;14.73;;;12.55;;
23163;SDS011;31429;42.674;23.350;2023-04-23T02:59:15;14.80;;;13.23;;
23163;SDS011;31429;42.674;23.350;2023-04-23T03:00:16;15.67;;;13.63;;
23163;SDS011;31429;42.674;23.350;2023-04-23T03:01:17;14.95;;;13.32;;
23163;SDS011;31429;42.674;23.350;2023-04-23T03:02:18;16.50;;;14.23;;
23163;SDS011;31429;42.674;23.350;2023-04-23T03:03:18;16.07;;;14.33;;
23163;SDS011;31429;42.674;23.350;2023-04-23T03:04:19;17.03;;;14.33;;
23163;SDS011;31429;42.674;23.350;2023-04-23T03:05:20;16.02;;;13.88;;
23163;SDS011;31429;42.674;23.350;2023-04-23T03:06:21;16.85;;;14.13;;
23163;SDS011;31429;42.674;23.350;2023-04-23T03:07:23;16.73;;;15.02;;
23163;SDS011;31429;42.674;23.350;2023-04-23T03:08:24;18.50;;;15.53;;
23163;SDS011;31429;42.674;23.350;2023-04-23T03:09:26;18.60;;;16.00;;
23163;SDS011;31429;42.674;23.350;2023-04-23T03:10:26;19.00;;;16.50;;
23163;SDS011;31429;42.674;23.350;2023-04-23T03:11:27;18.10;;;16.30;;
23163;SDS011;31429;42.674;23.350;2023-04-23T03:12:28;19.90;;;16.77;;
23163;SDS011;31429;42.674;23.350;2023-04-23T03:13:28;19.10;;;15.90;;
23163;SDS011;31429;42.674;23.350;2023-04-23T03:14:29;22.83;;;15.95;;
23163;SDS011;31429;42.674;23.350;2023-04-23T03:15:30;22.70;;;15.97;;
23163;SDS011;31429;42.674;23.350;2023-04-23T03:16:31;20.73;;;17.17;;
23163;SDS011;31429;42.674;23.350;2023-04-23T03:17:31;19.10;;;15.37;;
23163;SDS011;31429;42.674;23.350;2023-04-23T03:18:32;20.83;;;17.10;;
23163;SDS011;31429;42.674;23.350;2023-04-23T03:19:33;19.30;;;16.03;;
23163;SDS011;31429;42.674;23.350;2023-04-23T03:20:33;18.83;;;15.30;;
23163;SDS011;31429;42.674;23.350;2023-04-23T03:21:34;18.60;;;15.82;;
23163;SDS011;31429;42.674;23.350;2023-04-23T03:22:35;23.47;;;17.10;;
23163;SDS011;31429;42.674;23.350;2023-04-23T03:23:36;21.70;;;17.13;;
23163;SDS011;31429;42.674;23.350;2023-04-23T03:24:38;22.33;;;16.10;;
23163;SDS011;31429;42.674;23.350;2023-04-23T03:25:38;21.85;;;16.85;;
23163;SDS011;31429;42.674;23.350;2023-04-23T03:26:39;20.80;;;16.20;;
23163;SDS011;31429;42.674;23.350;2023-04-23T03:27:40;17.43;;;15.60;;
23163;SDS011;31429;42.674;23.350;2023-04-23T03:28:41;18.83;;;16.75;;
23163;SDS011;31429;42.674;23.350;2023-04-23T03:29:42;19.60;;;17.07;;
23163;SDS011;31429;42.674;23.350;2023-04-23T03:30:42;24.27;;;15.47;;
23163;SDS011;31429;42.674;23.350;2023-04-23T03:31:43;19.97;;;16.60;;
23163;SDS011;31429;42.674;23.350;2023-04-23T03:32:44;22.70;;;17.23;;
23163;SDS011;31429;42.674;23.350;2023-04-23T03:33:44;22.00;;;17.53;;
23163;SDS011;31429;42.674;23.350;2023-04-23T03:34:45;20.80;;;18.50;;
23163;SDS011;31429;42.674;23.350;2023-04-23T03:35:46;22.20;;;18.90;;
23163;SDS011;31429;42.674;23.350;2023-04-23T03:36:46;21.73;;;19.40;;
23163;SDS011;31429;42.674;23.350;2023-04-23T03:37:47;23.88;;;20.17;;
23163;SDS011;31429;42.674;23.350;2023-04-23T03:38:48;24.13;;;20.87;;
23163;SDS011;31429;42.674;23.350;2023-04-23T03:39:50;25.27;;;20.50;;
23163;SDS011;31429;42.674;23.350;2023-04-23T03:40:51;24.55;;;20.48;;
23163;SDS011;31429;42.674;23.350;2023-04-23T03:41:52;24.27;;;20.60;;
23163;SDS011;31429;42.674;23.350;2023-04-23T03:42:52;22.87;;;19.27;;
23163;SDS011;31429;42.674;23.350;2023-04-23T03:43:53;21.60;;;18.63;;
23163;SDS011;31429;42.674;23.350;2023-04-23T03:44:54;26.20;;;20.40;;
23163;SDS011;31429;42.674;23.350;2023-04-23T03:45:54;26.07;;;20.10;;
23163;SDS011;31429;42.674;23.350;2023-04-23T03:46:55;21.67;;;18.20;;
23163;SDS011;31429;42.674;23.350;2023-04-23T03:47:55;24.33;;;18.60;;
23163;SDS011;31429;42.674;23.350;2023-04-23T03:48:56;19.53;;;17.27;;
23163;SDS011;31429;42.674;23.350;2023-04-23T03:49:57;22.23;;;17.70;;
23163;SDS011;31429;42.674;23.350;2023-04-23T03:50:57;23.53;;;18.27;;
23163;SDS011;31429;42.674;23.350;2023-04-23T03:51:58;21.53;;;17.27;;
23163;SDS011;31429;42.674;23.350;2023-04-23T03:52:59;20.23;;;17.13;;
23163;SDS011;31429;42.674;23.350;2023-04-23T03:54:00;19.80;;;17.03;;
23163;SDS011;31429;42.674;23.350;2023-04-23T03:55:02;19.10;;;17.03;;
23163;SDS011;31429;42.674;23.350;2023-04-23T03:56:03;20.10;;;16.33;;
23163;SDS011;31429;42.674;23.350;2023-04-23T03:57:03;20.27;;;16.67;;
23163;SDS011;31429;42.674;23.350;2023-04-23T03:58:04;22.80;;;16.40;;
23163;SDS011;31429;42.674;23.350;2023-04-23T03:59:05;19.60;;;16.00;;
23163;SDS011;31429;42.674;23.350;2023-04-23T04:00:06;18.00;;;16.10;;
23163;SDS011;31429;42.674;23.350;2023-04-23T04:01:07;20.83;;;16.58;;
23163;SDS011;31429;42.674;23.350;2023-04-23T04:02:08;19.67;;;15.87;;
23163;SDS011;31429;42.674;23.350;2023-04-23T04:03:08;18.37;;;15.93;;
23163;SDS011;31429;42.674;23.350;2023-04-23T04:04:09;18.63;;;16.63;;
23163;SDS011;31429;42.674;23.350;2023-04-23T04:05:10;19.30;;;16.13;;
23163;SDS011;31429;42.674;23.350;2023-04-23T04:06:11;20.13;;;15.45;;
23163;SDS011;31429;42.674;23.350;2023-04-23T04:07:12;18.33;;;14.57;;
23163;SDS011;31429;42.674;23.350;2023-04-23T04:08:12;21.50;;;15.93;;
23163;SDS011;31429;42.674;23.350;2023-04-23T04:09:13;19.87;;;16.13;;
23163;SDS011;31429;42.674;23.350;2023-04-23T04:10:15;39.40;;;32.03;;
23163;SDS011;31429;42.674;23.350;2023-04-23T04:11:16;119.82;;;91.28;;
23163;SDS011;31429;42.674;23.350;2023-04-23T04:12:16;214.67;;;159.93;;
23163;SDS011;31429;42.674;23.350;2023-04-23T04:13:17;305.80;;;230.40;;
23163;SDS011;31429;42.674;23.350;2023-04-23T04:14:18;405.05;;;295.50;;
23163;SDS011;31429;42.674;23.350;2023-04-23T04:15:20;436.80;;;328.73;;
23163;SDS011;31429;42.674;23.350;2023-04-23T04:16:20;460.60;;;340.07;;
23163;SDS011;31429;42.674;23.350;2023-04-23T04:17:21;428.37;;;323.17;;
23163;SDS011;31429;42.674;23.350;2023-04-23T04:18:21;357.93;;;270.33;;
23163;SDS011;31429;42.674;23.350;2023-04-23T04:19:22;274.20;;;203.17;;
23163;SDS011;31429;42.674;23.350;2023-04-23T04:20:23;319.40;;;234.57;;
23163;SDS011;31429;42.674;23.350;2023-04-23T04:21:24;211.17;;;154.17;;
23163;SDS011;31429;42.674;23.350;2023-04-23T04:22:25;212.33;;;149.40;;
23163;SDS011;31429;42.674;23.350;2023-04-23T04:23:25;197.47;;;141.67;;
23163;SDS011;31429;42.674;23.350;2023-04-23T04:24:26;96.80;;;71.73;;
23163;SDS011;31429;42.674;23.350;2023-04-23T04:25:29;74.60;;;55.50;;
23163;SDS011;31429;42.674;23.350;2023-04-23T04:26:30;112.32;;;81.93;;
23163;SDS011;31429;42.674;23.350;2023-04-23T04:27:31;170.48;;;119.82;;
23163;SDS011;31429;42.674;23.350;2023-04-23T04:28:34;153.25;;;109.97;;
23163;SDS011;31429;42.674;23.350;2023-04-23T04:29:36;194.20;;;133.57;;
23163;SDS011;31429;42.674;23.350;2023-04-23T04:30:39;206.65;;;142.80;;
23163;SDS011;31429;42.674;23.350;2023-04-23T04:31:41;179.68;;;126.03;;
23163;SDS011;31429;42.674;23.350;2023-04-23T04:32:42;192.53;;;135.17;;
23163;SDS011;31429;42.674;23.350;2023-04-23T04:33:44;207.38;;;148.75;;
23163;SDS011;31429;42.674;23.350;2023-04-23T04:34:45;152.23;;;112.88;;
23163;SDS011;31429;42.674;23.350;2023-04-23T04:35:46;307.97;;;232.90;;
23163;SDS011;31429;42.674;23.350;2023-04-23T04:36:48;247.40;;;184.75;;
23163;SDS011;31429;42.674;23.350;2023-04-23T04:37:52;198.50;;;143.20;;
23163;SDS011;31429;42.674;23.350;2023-04-23T04:38:54;287.85;;;214.38;;
23163;SDS011;31429;42.674;23.350;2023-04-23T04:40:14;308.50;;;225.98;;
23163;SDS011;31429;42.674;23.350;2023-04-23T04:41:16;140.33;;;101.87;;
23163;SDS011;31429;42.674;23.350;2023-04-23T04:42:19;102.05;;;76.22;;
23163;SDS011;31429;42.674;23.350;2023-04-23T04:43:20;49.53;;;37.67;;
23163;SDS011;31429;42.674;23.350;2023-04-23T04:44:20;181.73;;;130.13;;
23163;SDS011;31429;42.674;23.350;2023-04-23T04:45:21;153.87;;;109.93;;
23163;SDS011;31429;42.674;23.350;2023-04-23T04:46:23;33.55;;;24.95;;
23163;SDS011;31429;42.674;23.350;2023-04-23T04:47:25;51.90;;;38.25;;
23163;SDS011;31429;42.674;23.350;2023-04-23T04:48:26;109.63;;;79.10;;
23163;SDS011;31429;42.674;23.350;2023-04-23T04:49:26;43.17;;;33.37;;
23163;SDS011;31429;42.674;23.350;2023-04-23T04:50:27;131.77;;;94.63;;
23163;SDS011;31429;42.674;23.350;2023-04-23T04:51:28;52.03;;;40.60;;
23163;SDS011;31429;42.674;23.350;2023-04-23T04:52:28;62.47;;;45.70;;
23163;SDS011;31429;42.674;23.350;2023-04-23T04:53:29;51.17;;;38.90;;
23163;SDS011;31429;42.674;23.350;2023-04-23T04:54:30;20.17;;;15.73;;
23163;SDS011;31429;42.674;23.350;2023-04-23T04:55:30;23.03;;;18.07;;
23163;SDS011;31429;42.674;23.350;2023-04-23T04:56:32;18.70;;;16.30;;
23163;SDS011;31429;42.674;23.350;2023-04-23T04:57:33;24.30;;;19.70;;
23163;SDS011;31429;42.674;23.350;2023-04-23T04:58:34;17.50;;;15.27;;
23163;SDS011;31429;42.674;23.350;2023-04-23T04:59:35;16.70;;;14.98;;
23163;SDS011;31429;42.674;23.350;2023-04-23T05:00:36;15.30;;;13.50;;
23163;SDS011;31429;42.674;23.350;2023-04-23T05:01:37;14.97;;;13.30;;
23163;SDS011;31429;42.674;23.350;2023-04-23T05:02:37;14.53;;;13.13;;
23163;SDS011;31429;42.674;23.350;2023-04-23T05:03:38;20.77;;;16.07;;
23163;SDS011;31429;42.674;23.350;2023-04-23T05:04:38;26.20;;;19.97;;
23163;SDS011;31429;42.674;23.350;2023-04-23T05:05:39;15.87;;;13.00;;
23163;SDS011;31429;42.674;23.350;2023-04-23T05:06:40;14.90;;;10.93;;
23163;SDS011;31429;42.674;23.350;2023-04-23T05:07:40;15.40;;;12.27;;
23163;SDS011;31429;42.674;23.350;2023-04-23T05:08:41;13.57;;;12.13;;
23163;SDS011;31429;42.674;23.350;2023-04-23T05:09:47;18.10;;;13.18;;
23163;SDS011;31429;42.674;23.350;2023-04-23T05:10:47;18.20;;;13.57;;
23163;SDS011;31429;42.674;23.350;2023-04-23T05:11:50;16.52;;;13.50;;
23163;SDS011;31429;42.674;23.350;2023-04-23T05:12:51;18.85;;;13.82;;
23163;SDS011;31429;42.674;23.350;2023-04-23T05:13:52;14.25;;;11.75;;
23163;SDS011;31429;42.674;23.350;2023-04-23T05:14:53;21.40;;;14.73;;
23163;SDS011;31429;42.674;23.350;2023-04-23T05:15:53;14.07;;;11.77;;
23163;SDS011;31429;42.674;23.350;2023-04-23T05:16:54;15.80;;;12.83;;
23163;SDS011;31429;42.674;23.350;2023-04-23T05:17:55;17.60;;;13.87;;
23163;SDS011;31429;42.674;23.350;2023-04-23T05:18:55;16.03;;;12.67;;
23163;SDS011;31429;42.674;23.350;2023-04-23T05:19:56;19.63;;;12.47;;
23163;SDS011;31429;42.674;23.350;2023-04-23T05:20:57;12.73;;;11.43;;
23163;SDS011;31429;42.674;23.350;2023-04-23T05:21:58;13.03;;;11.60;;
23163;SDS011;31429;42.674;23.350;2023-04-23T05:22:58;16.17;;;11.13;;
23163;SDS011;31429;42.674;23.350;2023-04-23T05:24:01;14.60;;;11.95;;
23163;SDS011;31429;42.674;23.350;2023-04-23T05:25:02;12.17;;;11.00;;
23163;SDS011;31429;42.674;23.350;2023-04-23T05:26:03;13.30;;;11.65;;
23163;SDS011;31429;42.674;23.350;2023-04-23T05:27:05;13.87;;;10.93;;
23163;SDS011;31429;42.674;23.350;2023-04-23T05:28:06;17.92;;;13.02;;
23163;SDS011;31429;42.674;23.350;2023-04-23T05:29:07;14.18;;;12.63;;
23163;SDS011;31429;42.674;23.350;2023-04-23T05:30:08;15.27;;;13.63;;
23163;SDS011;31429;42.674;23.350;2023-04-23T05:31:10;13.38;;;12.05;;
23163;SDS011;31429;42.674;23.350;2023-04-23T05:32:10;14.03;;;11.27;;
23163;SDS011;31429;42.674;23.350;2023-04-23T05:33:11;14.53;;;12.07;;
23163;SDS011;31429;42.674;23.350;2023-04-23T05:34:12;12.50;;;11.23;;
23163;SDS011;31429;42.674;23.350;2023-04-23T05:35:12;15.60;;;11.97;;
23163;SDS011;31429;42.674;23.350;2023-04-23T05:36:13;14.67;;;11.90;;
23163;SDS011;31429;42.674;23.350;2023-04-23T05:37:14;16.00;;;12.10;;
23163;SDS011;31429;42.674;23.350;2023-04-23T05:38:14;14.40;;;12.10;;
23163;SDS011;31429;42.674;23.350;2023-04-23T05:39:15;14.17;;;11.23;;
23163;SDS011;31429;42.674;23.350;2023-04-23T05:40:16;14.83;;;11.20;;
23163;SDS011;31429;42.674;23.350;2023-04-23T05:41:16;12.97;;;11.40;;
23163;SDS011;31429;42.674;23.350;2023-04-23T05:42:18;13.67;;;11.00;;
23163;SDS011;31429;42.674;23.350;2023-04-23T05:43:19;15.13;;;11.55;;
23163;SDS011;31429;42.674;23.350;2023-04-23T05:44:20;16.67;;;11.37;;
23163;SDS011;31429;42.674;23.350;2023-04-23T05:45:21;16.63;;;11.83;;
23163;SDS011;31429;42.674;23.350;2023-04-23T05:46:21;14.30;;;11.33;;
23163;SDS011;31429;42.674;23.350;2023-04-23T05:47:22;16.97;;;12.03;;
23163;SDS011;31429;42.674;23.350;2023-04-23T05:48:22;13.90;;;12.50;;
23163;SDS011;31429;42.674;23.350;2023-04-23T05:49:23;14.30;;;12.53;;
23163;SDS011;31429;42.674;23.350;2023-04-23T05:50:25;17.55;;;13.23;;
23163;SDS011;31429;42.674;23.350;2023-04-23T05:51:25;14.70;;;13.07;;
23163;SDS011;31429;42.674;23.350;2023-04-23T05:52:26;15.83;;;12.93;;
23163;SDS011;31429;42.674;23.350;2023-04-23T05:53:29;13.73;;;11.95;;